Station: Eucla  

  Atmospheric Gas Attenuation - ITU Rec 676-11   ----------------- dB/100km -----------------
Date Time Temp RH % AH g/m3 Dew Point Wind Direction Speed kph Gust kph Barometer mB Rainfall Since 9am 24GHz 47GHz 76GHz 122GHz 134GHz 241GHz
08/05 09:20 17 70 10.13 11.5 17 22 1035.4 0 22.6 28.3 45.3 118.9 116.4 401.5
08/05 09:10 15.6 78 10.37 11.8 13 15 1035.4 0 23.2 29.1 47.1 123.8 121.8 420.4
08/05 09:00 14.9 81 10.32 11.7 15 22 1035.3 0 23.2 29.3 47.4 124.3 122.2 421.7
08/05 08:50 14.9 82 10.45 11.9 15 20 1035.4 0.2 23.4 29.5 47.9 125.8 124.1 428.1
08/05 08:40 16.3 70 9.71 10.8 17 22 1035.3 0.2 21.8 27.8 44.0 115.3 111.7 385.2
08/05 08:30 16.6 56 7.91 7.8 13 22 1035 0.2 18.0 24.8 36.7 95.9 87.9 301.7
08/05 08:20 16.5 55 7.72 7.4 13 15 1035.1 0.2 17.6 24.6 36.0 94.1 85.6 293.7
08/05 08:10 16.4 57 7.96 7.9 11 13 1035.1 0.2 18.1 25.0 37.0 96.7 88.7 304.7
08/05 08:00 16.3 57 7.91 7.8 9 15 1035 0.2 18.0 24.9 36.8 96.3 88.2 302.8
08/05 07:50 16.1 57 7.81 7.6 9 11 1035.1 0.2 17.8 24.8 36.6 95.5 87.2 299.2
08/05 07:40 16.1 55 7.54 7.1 15 17 1035 0.2 17.2 24.4 35.5 92.7 83.8 287.3
08/05 07:30 15.6 58 7.71 7.4 11 22 1034.8 0.2 17.6 24.8 36.4 95.0 86.4 296.6
08/05 07:20 15.4 60 7.88 7.7 7 9 1034.9 0.2 18.0 25.1 37.1 97.0 88.8 304.9
08/05 07:10 15.3 59 7.7 7.3 7 11 1034.8 0.2 17.6 24.8 36.5 95.3 86.6 297.2
08/05 07:00 15.3 59 7.7 7.3 11 15 1034.6 0.2 17.6 24.8 36.5 95.3 86.6 297.2
08/05 06:50 15.4 57 7.49 6.9 13 15 1034.7 0.2 17.1 24.5 35.6 93.0 83.9 287.5
08/05 06:40 15.4 57 7.49 6.9 13 15 1034.5 0.2 17.1 24.5 35.6 93.0 83.8 287.5
08/05 06:30 15.3 59 7.7 7.3 15 20 1034.3 0.2 17.6 24.8 36.5 95.2 86.6 297.1
08/05 06:20 15.1 62 8 7.9 15 20 1034.4 0.2 18.2 25.4 37.7 98.6 90.7 311.3
08/05 06:10 14.8 61 7.73 7.4 7 11 1034.4 0.2 17.7 25.0 36.8 96.2 87.5 300.3
08/05 06:00 14.7 60 7.55 7 9 11 1034.2 0.2 17.3 24.7 36.1 94.4 85.3 292.6
08/05 05:50 14.8 59 7.47 6.9 9 11 1034.1 0.2 17.1 24.6 35.8 93.4 84.2 288.7
08/05 05:40 15 59 7.57 7.1 11 13 1034 0.2 17.3 24.7 36.1 94.2 85.3 292.4
08/05 05:30 15.1 58 7.48 6.9 13 19 1033.9 0.2 17.1 24.5 35.7 93.2 84.0 288.0
08/05 05:20 15 59 7.57 7.1 13 17 1034 0.2 17.3 24.7 36.1 94.2 85.3 292.4
08/05 05:10 14.9 61 7.77 7.5 13 15 1033.8 0.2 17.8 25.0 36.9 96.4 87.9 301.6
08/05 05:00 14.6 63 7.88 7.6 9 13 1033.8 0.2 18.0 25.3 37.5 97.9 89.6 307.7
08/05 04:50 14.7 62 7.81 7.5 7 11 1033.8 0.2 17.8 25.1 37.1 97.0 88.6 304.2
08/05 04:40 14.6 64 8.01 7.9 7 7 1033.7 0.2 18.3 25.5 38.0 99.3 91.3 313.6
08/05 04:30 14.8 62 7.85 7.6 9 11 1033.8 0.2 17.9 25.2 37.2 97.3 89.0 305.6
08/05 04:20 15 60 7.69 7.3 9 11 1033.7 0.2 17.6 24.9 36.5 95.4 86.8 297.6
08/05 04:10 15 60 7.69 7.3 13 15 1033.6 0.2 17.6 24.9 36.5 95.4 86.7 297.6
08/05 04:00 15.1 59 7.61 7.2 11 19 1033.5 0.2 17.4 24.7 36.2 94.5 85.6 293.6
08/05 03:50 15.1 58 7.48 6.9 11 15 1033.5 0.2 17.1 24.5 35.7 93.1 84.0 287.9
08/05 03:40 15.2 57 7.4 6.7 11 13 1033.5 0.2 17.0 24.4 35.3 92.2 82.9 284.0
08/05 03:30 15.2 59 7.66 7.3 13 20 1033.5 0.2 17.5 24.8 36.3 94.9 86.1 295.5
08/05 03:20 15 61 7.82 7.5 9 11 1033.4 0.2 17.9 25.1 37.0 96.7 88.4 303.4
08/05 03:10 15 61 7.82 7.5 9 11 1033.5 0.2 17.9 25.1 37.0 96.8 88.4 303.4
08/05 03:00 14.9 61 7.77 7.5 9 13 1033.5 0.2 17.8 25.0 36.9 96.4 87.9 301.5
08/05 02:50 15.1 60 7.74 7.4 9 11 1033.5 0.2 17.7 24.9 36.7 95.8 87.3 299.4
08/05 02:40 15.1 60 7.74 7.4 15 19 1033.4 0.2 17.7 24.9 36.7 95.8 87.3 299.4
08/05 02:30 15.1 61 7.87 7.6 13 19 1033.4 0.2 18.0 25.1 37.2 97.1 88.9 305.2
08/05 02:20 15.3 62 8.1 8.1 13 15 1033.4 0.2 18.4 25.4 38.0 99.3 91.6 314.8
08/05 02:10 15.2 62 8.05 8 13 17 1033.4 0.2 18.3 25.4 37.8 98.9 91.1 312.9
08/05 02:00 15.2 67 8.7 9.1 11 17 1033.4 0.2 19.7 26.4 40.4 105.8 99.6 342.6
08/05 01:50 15.1 66 8.51 8.8 11 13 1033.4 0.2 19.3 26.1 39.7 103.9 97.2 334.3
08/05 01:40 15.1 63 8.13 8.1 11 13 1033.4 0.2 18.5 25.5 38.2 99.9 92.3 317.0
08/05 01:30 14.9 60 7.65 7.2 9 13 1033.4 0.2 17.5 24.8 36.4 95.1 86.3 296.1
08/05 01:20 14.9 60 7.65 7.2 9 11 1033.4 0.2 17.5 24.8 36.4 95.1 86.3 296.1
08/05 01:10 14.9 59 7.52 7 11 13 1033.5 0.2 17.2 24.6 35.9 93.8 84.7 290.4
08/05 01:00 15 58 7.44 6.8 13 20 1033.5 0.2 17.1 24.5 35.6 92.8 83.6 286.5
08/05 00:50 15.1 56 7.22 6.4 15 19 1033.6 0.2 16.6 24.1 34.7 90.5 80.7 276.4
08/05 00:40 15 57 7.31 6.6 15 17 1033.7 0.2 16.8 24.3 35.1 91.5 81.9 280.8
08/05 00:30 14.9 57 7.26 6.5 15 28 1033.7 0.2 16.7 24.2 34.9 91.1 81.4 278.9
08/05 00:20 15.2 58 7.53 7 13 17 1033.7 0.2 17.2 24.6 35.8 93.6 84.5 289.8
08/05 00:10 15.3 58 7.57 7.1 20 28 1033.7 0.2 17.3 24.6 35.9 93.8 84.9 291.2
08/05 00:00 15.3 60 7.84 7.6 17 26 1033.7 0.2 17.9 25.0 37.0 96.6 88.3 303.2
07/05 23:50 15.5 61 8.06 8 19 22 1033.7 0.2 18.3 25.3 37.7 98.7 90.9 312.3
07/05 23:40 15.3 61 7.97 7.8 13 17 1033.8 0.2 18.2 25.2 37.5 98.0 90.0 309.1
07/05 23:30 15.4 60 7.88 7.7 13 19 1033.8 0.2 18.0 25.1 37.1 96.9 88.7 304.6
07/05 23:20 15.2 60 7.79 7.5 15 17 1034 0.2 17.8 25.0 36.8 96.3 87.8 301.4
07/05 23:10 15.2 58 7.53 7 11 13 1034 0.2 17.2 24.6 35.8 93.6 84.5 289.8
07/05 23:00 15.3 56 7.31 6.6 15 24 1033.9 0.2 16.8 24.2 34.9 91.2 81.7 279.8
07/05 22:50 15.3 55 7.18 6.3 17 22 1034.1 0.2 16.5 24.0 34.5 89.9 80.0 274.1
07/05 22:40 15.4 56 7.36 6.7 19 26 1034.1 0.2 16.9 24.3 35.1 91.6 82.2 281.7
07/05 22:30 15.3 58 7.57 7.1 15 26 1034 0.2 17.3 24.6 35.9 93.9 84.9 291.3
07/05 22:20 15.5 57 7.53 7 19 22 1034.2 0.2 17.2 24.5 35.7 93.2 84.2 288.8
07/05 22:10 15.5 60 7.93 7.8 17 24 1034.2 0.2 18.1 25.1 37.2 97.4 89.3 306.6
07/05 22:00 15.6 58 7.71 7.4 15 28 1034.2 0.2 17.6 24.8 36.4 95.0 86.4 296.4
07/05 21:50 15.7 60 8.03 8 15 22 1034.2 0.2 18.3 25.2 37.5 98.2 90.3 310.3
07/05 21:40 15.7 59 7.89 7.7 15 19 1034.2 0.2 18.0 25.0 37.0 96.7 88.6 304.0
07/05 21:30 15.7 63 8.43 8.7 15 22 1034.1 0.2 19.1 25.9 39.1 102.3 95.5 328.3
07/05 21:20 15.7 60 8.03 8 15 19 1034.2 0.2 18.3 25.2 37.5 98.2 90.3 310.3
07/05 21:10 15.7 56 7.49 7 13 15 1034.2 0.2 17.1 24.4 35.5 92.6 83.5 286.3
07/05 21:00 15.7 60 8.03 8 15 26 1034 0.2 18.3 25.2 37.5 98.1 90.3 310.2
07/05 20:50 15.7 63 8.43 8.7 17 19 1034.1 0.2 19.1 25.9 39.1 102.3 95.5 328.3
07/05 20:40 15.6 65 8.64 9.1 19 26 1034 0.2 19.6 26.2 40.0 104.7 98.3 338.3
07/05 20:30 15.7 62 8.3 8.4 19 28 1033.9 0.2 18.8 25.6 38.6 100.9 93.8 322.4
07/05 20:20 15.7 62 8.3 8.4 19 26 1034.1 0.2 18.8 25.6 38.6 101.0 93.8 322.4
07/05 20:10 15.7 64 8.56 8.9 19 28 1034 0.2 19.4 26.1 39.6 103.7 97.2 334.2
07/05 20:00 15.8 65 8.75 9.2 19 32 1034 0.2 19.8 26.3 40.3 105.6 99.5 342.5
07/05 19:50 15.8 65 8.75 9.2 19 22 1034 0.2 19.8 26.3 40.3 105.6 99.5 342.5
07/05 19:40 15.8 62 8.35 8.5 15 17 1033.8 0.2 18.9 25.7 38.7 101.3 94.3 324.2
07/05 19:30 15.8 60 8.08 8.1 15 24 1033.9 0.2 18.4 25.3 37.7 98.5 90.8 312.1
07/05 19:20 15.8 62 8.35 8.5 17 20 1034.1 0.2 18.9 25.7 38.7 101.3 94.3 324.3
07/05 19:10 15.7 63 8.43 8.7 13 15 1034 0.2 19.1 25.8 39.1 102.3 95.5 328.3
07/05 19:00 15.5 59 7.8 7.5 13 15 1033.9 0.2 17.8 24.9 36.7 96.0 87.6 300.7
07/05 18:50 15.5 58 7.67 7.3 13 15 1034 0.2 17.5 24.7 36.2 94.7 86.0 295.0
07/05 18:40 15.8 57 7.67 7.3 17 20 1033.8 0.2 17.5 24.6 36.1 94.3 85.6 293.8
07/05 18:30 15.8 61 8.21 8.3 15 24 1033.7 0.2 18.6 25.5 38.2 99.8 92.5 317.9
07/05 18:20 15.9 62 8.4 8.6 17 19 1033.7 0.2 19.0 25.7 38.9 101.7 94.8 326.0
07/05 18:10 15.7 69 9.23 10 17 19 1033.7 0.2 20.8 27.1 42.3 110.8 106.0 365.1
07/05 18:00 15.6 70 9.31 10.2 17 28 1033.6 0.2 21.0 27.3 42.7 111.8 107.2 369.2
07/05 17:50 15.6 70 9.31 10.2 15 17 1033.5 0.2 21.0 27.3 42.7 111.8 107.2 369.2
07/05 17:40 15.6 71 9.44 10.4 17 19 1033.4 0.2 21.3 27.5 43.2 113.2 108.9 375.3
07/05 17:30 15.6 59 7.85 7.6 15 26 1033.3 0.2 17.9 24.9 36.9 96.3 88.1 302.4
07/05 17:20 15.4 60 7.88 7.7 13 15 1033.3 0.2 18.0 25.0 37.1 96.9 88.7 304.5
07/05 17:10 15.6 58 7.71 7.4 17 22 1033.3 0.2 17.6 24.7 36.3 94.9 86.3 296.2
07/05 17:00 15.7 60 8.03 8 13 19 1033.2 0.2 18.3 25.2 37.5 98.1 90.3 310.0
07/05 16:50 15.8 61 8.21 8.3 11 15 1033.1 0.2 18.6 25.4 38.2 99.8 92.5 317.7

Last Refresh: 08-May-2026 11:03:37

Bureau of Meteorology